sensor_id;sensor_type;location;lat;lon;timestamp;pressure;altitude;pressure_sealevel;temperature;humidity
42169;BME280;27838;43.858;25.974;2024-03-02T00:00:53;100824.94;;;11.12;68.81
42169;BME280;27838;43.858;25.974;2024-03-02T00:03:20;100836.25;;;11.19;68.53
42169;BME280;27838;43.858;25.974;2024-03-02T00:05:50;100828.41;;;11.14;68.53
42169;BME280;27838;43.858;25.974;2024-03-02T00:08:24;100828.41;;;11.12;68.57
42169;BME280;27838;43.858;25.974;2024-03-02T00:10:57;100834.53;;;11.11;68.42
42169;BME280;27838;43.858;25.974;2024-03-02T00:13:23;100820.63;;;11.06;68.65
42169;BME280;27838;43.858;25.974;2024-03-02T00:15:55;100814.53;;;10.86;69.74
42169;BME280;27838;43.858;25.974;2024-03-02T00:18:25;100822.34;;;10.83;70.23
42169;BME280;27838;43.858;25.974;2024-03-02T00:20:53;100820.59;;;10.65;70.72
42169;BME280;27838;43.858;25.974;2024-03-02T00:23:21;100837.09;;;10.68;70.88
42169;BME280;27838;43.858;25.974;2024-03-02T00:25:52;100824.91;;;10.53;71.53
42169;BME280;27838;43.858;25.974;2024-03-02T00:33:20;100832.72;;;10.56;71.42
42169;BME280;27838;43.858;25.974;2024-03-02T00:35:47;100826.66;;;10.61;71.25
42169;BME280;27838;43.858;25.974;2024-03-02T00:38:14;100830.16;;;10.61;71.00
42169;BME280;27838;43.858;25.974;2024-03-02T00:40:44;100817.13;;;10.61;71.32
42169;BME280;27838;43.858;25.974;2024-03-02T00:43:38;100818.84;;;10.67;71.18
42169;BME280;27838;43.858;25.974;2024-03-02T00:46:06;100811.91;;;10.61;71.04
42169;BME280;27838;43.858;25.974;2024-03-02T00:48:33;100820.56;;;10.62;71.39
42169;BME280;27838;43.858;25.974;2024-03-02T00:51:01;100821.44;;;10.53;71.70
42169;BME280;27838;43.858;25.974;2024-03-02T00:53:30;100794.50;;;10.57;71.49
42169;BME280;27838;43.858;25.974;2024-03-02T00:55:57;100790.19;;;10.57;71.50
42169;BME280;27838;43.858;25.974;2024-03-02T00:58:25;100780.63;;;10.61;71.50
42169;BME280;27838;43.858;25.974;2024-03-02T01:00:51;100775.41;;;10.67;71.32
42169;BME280;27838;43.858;25.974;2024-03-02T01:03:18;100789.31;;;10.72;71.19
42169;BME280;27838;43.858;25.974;2024-03-02T01:05:44;100801.47;;;10.63;71.03
42169;BME280;27838;43.858;25.974;2024-03-02T01:08:14;100799.72;;;10.63;71.48
42169;BME280;27838;43.858;25.974;2024-03-02T01:10:41;100786.69;;;10.54;71.80
42169;BME280;27838;43.858;25.974;2024-03-02T01:13:07;100789.28;;;10.57;71.85
42169;BME280;27838;43.858;25.974;2024-03-02T01:15:34;100783.19;;;10.53;71.97
42169;BME280;27838;43.858;25.974;2024-03-02T01:18:01;100795.38;;;10.51;72.11
42169;BME280;27838;43.858;25.974;2024-03-02T01:20:28;100785.81;;;10.43;72.50
42169;BME280;27838;43.858;25.974;2024-03-02T01:22:54;100778.84;;;10.48;72.28
42169;BME280;27838;43.858;25.974;2024-03-02T01:25:21;100769.28;;;10.37;72.39
42169;BME280;27838;43.858;25.974;2024-03-02T01:27:47;100764.94;;;10.33;73.17
42169;BME280;27838;43.858;25.974;2024-03-02T01:30:14;100771.03;;;10.35;72.93
42169;BME280;27838;43.858;25.974;2024-03-02T01:32:41;100776.22;;;10.32;72.93
42169;BME280;27838;43.858;25.974;2024-03-02T01:35:07;100775.38;;;10.32;73.19
42169;BME280;27838;43.858;25.974;2024-03-02T01:37:34;100782.31;;;10.41;72.94
42169;BME280;27838;43.858;25.974;2024-03-02T01:40:01;100773.66;;;10.38;73.08
42169;BME280;27838;43.858;25.974;2024-03-02T01:42:28;100767.59;;;10.50;72.39
42169;BME280;27838;43.858;25.974;2024-03-02T01:44:55;100763.25;;;10.54;72.13
42169;BME280;27838;43.858;25.974;2024-03-02T01:47:22;100760.63;;;10.49;72.14
42169;BME280;27838;43.858;25.974;2024-03-02T01:49:49;100756.28;;;10.51;72.13
42169;BME280;27838;43.858;25.974;2024-03-02T01:52:16;100754.53;;;10.46;72.50
42169;BME280;27838;43.858;25.974;2024-03-02T01:54:42;100751.91;;;10.39;72.62
42169;BME280;27838;43.858;25.974;2024-03-02T01:57:09;100754.53;;;10.36;72.89
42169;BME280;27838;43.858;25.974;2024-03-02T01:59:36;100743.25;;;10.39;72.94
42169;BME280;27838;43.858;25.974;2024-03-02T02:02:03;100748.44;;;10.37;72.89
42169;BME280;27838;43.858;25.974;2024-03-02T02:04:29;100762.34;;;10.41;72.82
42169;BME280;27838;43.858;25.974;2024-03-02T02:06:56;100759.72;;;10.39;72.90
42169;BME280;27838;43.858;25.974;2024-03-02T02:09:23;100753.66;;;10.42;72.75
42169;BME280;27838;43.858;25.974;2024-03-02T02:11:50;100758.03;;;10.43;72.60
42169;BME280;27838;43.858;25.974;2024-03-02T02:14:17;100751.06;;;10.41;72.71
42169;BME280;27838;43.858;25.974;2024-03-02T02:16:44;100750.19;;;10.37;72.87
42169;BME280;27838;43.858;25.974;2024-03-02T02:19:11;100761.44;;;10.28;73.12
42169;BME280;27838;43.858;25.974;2024-03-02T02:21:38;100755.34;;;10.31;73.03
42169;BME280;27838;43.858;25.974;2024-03-02T02:24:08;100741.47;;;10.26;72.90
42169;BME280;27838;43.858;25.974;2024-03-02T02:26:34;100744.97;;;10.34;72.79
42169;BME280;27838;43.858;25.974;2024-03-02T02:29:01;100757.06;;;10.27;72.87
42169;BME280;27838;43.858;25.974;2024-03-02T02:31:39;100749.28;;;10.30;72.78
42169;BME280;27838;43.858;25.974;2024-03-02T02:34:06;100736.25;;;10.29;72.90
42169;BME280;27838;43.858;25.974;2024-03-02T02:36:33;100744.06;;;10.30;72.94
42169;BME280;27838;43.858;25.974;2024-03-02T02:39:02;100745.84;;;10.31;73.26
42169;BME280;27838;43.858;25.974;2024-03-02T02:41:30;100733.63;;;10.27;72.88
42169;BME280;27838;43.858;25.974;2024-03-02T02:43:56;100760.59;;;10.34;73.05
42169;BME280;27838;43.858;25.974;2024-03-02T02:46:23;100746.69;;;10.26;73.35
42169;BME280;27838;43.858;25.974;2024-03-02T02:48:50;100745.78;;;10.22;73.12
42169;BME280;27838;43.858;25.974;2024-03-02T02:51:18;100747.53;;;10.23;73.25
42169;BME280;27838;43.858;25.974;2024-03-02T02:53:45;100740.59;;;10.19;73.75
42169;BME280;27838;43.858;25.974;2024-03-02T02:56:11;100739.69;;;10.18;74.12
42169;BME280;27838;43.858;25.974;2024-03-02T02:58:40;100740.56;;;10.13;74.31
42169;BME280;27838;43.858;25.974;2024-03-02T03:01:07;100747.47;;;10.05;74.63
42169;BME280;27838;43.858;25.974;2024-03-02T03:03:34;100757.91;;;10.09;74.68
42169;BME280;27838;43.858;25.974;2024-03-02T03:06:00;100762.25;;;10.16;74.80
42169;BME280;27838;43.858;25.974;2024-03-02T03:08:27;100770.09;;;10.21;74.59
42169;BME280;27838;43.858;25.974;2024-03-02T03:10:54;100768.38;;;10.23;74.40
42169;BME280;27838;43.858;25.974;2024-03-02T03:13:21;100770.13;;;10.24;74.55
42169;BME280;27838;43.858;25.974;2024-03-02T03:15:48;100763.16;;;10.23;74.50
42169;BME280;27838;43.858;25.974;2024-03-02T03:18:14;100763.19;;;10.29;74.38
42169;BME280;27838;43.858;25.974;2024-03-02T03:20:41;100757.13;;;10.32;74.07
42169;BME280;27838;43.858;25.974;2024-03-02T03:23:07;100757.09;;;10.30;74.36
42169;BME280;27838;43.858;25.974;2024-03-02T03:25:34;100756.28;;;10.31;74.07
42169;BME280;27838;43.858;25.974;2024-03-02T03:28:00;100753.63;;;10.28;74.03
42169;BME280;27838;43.858;25.974;2024-03-02T03:30:28;100754.47;;;10.30;74.25
42169;BME280;27838;43.858;25.974;2024-03-02T03:32:55;100747.53;;;10.21;74.44
42169;BME280;27838;43.858;25.974;2024-03-02T03:35:21;100752.75;;;10.26;74.30
42169;BME280;27838;43.858;25.974;2024-03-02T03:37:48;100744.91;;;10.21;74.63
42169;BME280;27838;43.858;25.974;2024-03-02T03:40:14;100746.66;;;10.21;74.95
42169;BME280;27838;43.858;25.974;2024-03-02T03:42:41;100750.13;;;10.18;74.95
42169;BME280;27838;43.858;25.974;2024-03-02T03:45:08;100751.00;;;10.17;75.37
42169;BME280;27838;43.858;25.974;2024-03-02T03:47:35;100751.00;;;10.19;75.10
42169;BME280;27838;43.858;25.974;2024-03-02T03:50:01;100742.28;;;10.11;75.07
42169;BME280;27838;43.858;25.974;2024-03-02T03:52:32;100753.63;;;10.20;74.78
42169;BME280;27838;43.858;25.974;2024-03-02T03:54:59;100755.34;;;10.23;74.78
42169;BME280;27838;43.858;25.974;2024-03-02T03:57:26;100756.22;;;10.25;74.72
42169;BME280;27838;43.858;25.974;2024-03-02T03:59:53;100760.56;;;10.23;74.95
42169;BME280;27838;43.858;25.974;2024-03-02T04:02:19;100766.69;;;10.31;74.53
42169;BME280;27838;43.858;25.974;2024-03-02T04:04:46;100768.41;;;10.35;74.51
42169;BME280;27838;43.858;25.974;2024-03-02T04:07:13;100771.03;;;10.45;74.06
42169;BME280;27838;43.858;25.974;2024-03-02T04:09:39;100756.28;;;10.41;74.00
42169;BME280;27838;43.858;25.974;2024-03-02T04:12:06;100762.38;;;10.47;73.89
42169;BME280;27838;43.858;25.974;2024-03-02T04:14:32;100764.97;;;10.55;73.63
42169;BME280;27838;43.858;25.974;2024-03-02T04:16:59;100764.13;;;10.57;73.28
42169;BME280;27838;43.858;25.974;2024-03-02T04:19:26;100759.78;;;10.61;73.08
42169;BME280;27838;43.858;25.974;2024-03-02T04:21:52;100770.19;;;10.67;72.82
42169;BME280;27838;43.858;25.974;2024-03-02T04:24:19;100770.19;;;10.63;72.40
42169;BME280;27838;43.858;25.974;2024-03-02T04:26:45;100754.56;;;10.61;72.53
42169;BME280;27838;43.858;25.974;2024-03-02T04:29:12;100758.91;;;10.59;72.57
42169;BME280;27838;43.858;25.974;2024-03-02T04:31:38;100759.75;;;10.66;72.62
42169;BME280;27838;43.858;25.974;2024-03-02T04:34:05;100765.00;;;10.75;72.03
42169;BME280;27838;43.858;25.974;2024-03-02T04:36:31;100775.41;;;10.81;71.77
42169;BME280;27838;43.858;25.974;2024-03-02T04:38:58;100766.72;;;10.82;71.29
42169;BME280;27838;43.858;25.974;2024-03-02T04:41:24;100775.41;;;10.87;71.24
42169;BME280;27838;43.858;25.974;2024-03-02T04:43:51;100789.31;;;10.89;71.01
42169;BME280;27838;43.858;25.974;2024-03-02T04:46:17;100776.28;;;10.89;71.17
42169;BME280;27838;43.858;25.974;2024-03-02T04:48:44;100787.56;;;10.90;70.82
42169;BME280;27838;43.858;25.974;2024-03-02T04:51:10;100792.81;;;10.99;71.04
42169;BME280;27838;43.858;25.974;2024-03-02T04:53:38;100784.09;;;10.97;70.69
42169;BME280;27838;43.858;25.974;2024-03-02T04:56:05;100786.69;;;10.97;70.52
42169;BME280;27838;43.858;25.974;2024-03-02T04:59:04;100789.31;;;11.03;70.51
42169;BME280;27838;43.858;25.974;2024-03-02T05:01:31;100779.75;;;11.07;70.33
42169;BME280;27838;43.858;25.974;2024-03-02T05:03:58;100785.81;;;11.10;70.28
42169;BME280;27838;43.858;25.974;2024-03-02T05:06:24;100790.19;;;11.10;69.82
42169;BME280;27838;43.858;25.974;2024-03-02T05:08:51;100791.91;;;11.11;69.81
42169;BME280;27838;43.858;25.974;2024-03-02T05:11:17;100791.06;;;11.03;69.64
42169;BME280;27838;43.858;25.974;2024-03-02T05:14:00;100782.34;;;11.08;69.64
42169;BME280;27838;43.858;25.974;2024-03-02T05:16:27;100779.75;;;11.08;69.68
42169;BME280;27838;43.858;25.974;2024-03-02T05:18:54;100775.41;;;11.03;69.75
42169;BME280;27838;43.858;25.974;2024-03-02T05:21:20;100784.09;;;11.00;69.86
42169;BME280;27838;43.858;25.974;2024-03-02T05:23:47;100787.56;;;11.01;70.12
42169;BME280;27838;43.858;25.974;2024-03-02T05:26:13;100787.56;;;10.96;70.53
42169;BME280;27838;43.858;25.974;2024-03-02T05:28:40;100798.00;;;11.02;70.39
42169;BME280;27838;43.858;25.974;2024-03-02T05:31:10;100792.78;;;11.02;70.02
42169;BME280;27838;43.858;25.974;2024-03-02T05:33:38;100787.59;;;10.98;70.35
42169;BME280;27838;43.858;25.974;2024-03-02T05:36:04;100791.91;;;11.05;70.39
42169;BME280;27838;43.858;25.974;2024-03-02T05:38:32;100806.69;;;11.00;70.73
42169;BME280;27838;43.858;25.974;2024-03-02T05:40:58;100804.97;;;11.02;70.52
42169;BME280;27838;43.858;25.974;2024-03-02T05:43:25;100803.22;;;10.99;70.67
42169;BME280;27838;43.858;25.974;2024-03-02T05:45:51;100798.88;;;10.89;70.95
42169;BME280;27838;43.858;25.974;2024-03-02T05:48:18;100808.44;;;10.96;70.80
42169;BME280;27838;43.858;25.974;2024-03-02T05:50:44;100804.06;;;11.06;70.78
42169;BME280;27838;43.858;25.974;2024-03-02T05:53:11;100806.69;;;11.10;70.44
42169;BME280;27838;43.858;25.974;2024-03-02T05:55:38;100813.63;;;11.19;69.91
42169;BME280;27838;43.858;25.974;2024-03-02T05:58:04;100809.28;;;11.18;69.90
42169;BME280;27838;43.858;25.974;2024-03-02T06:00:47;100802.31;;;11.22;69.64
42169;BME280;27838;43.858;25.974;2024-03-02T06:03:14;100800.56;;;11.31;69.52
42169;BME280;27838;43.858;25.974;2024-03-02T06:05:41;100803.19;;;11.36;69.17
42169;BME280;27838;43.858;25.974;2024-03-02T06:08:07;100791.00;;;11.30;68.87
42169;BME280;27838;43.858;25.974;2024-03-02T06:10:34;100800.56;;;11.34;68.71
42169;BME280;27838;43.858;25.974;2024-03-02T06:13:00;100803.19;;;11.36;68.57
42169;BME280;27838;43.858;25.974;2024-03-02T06:15:27;100810.97;;;11.39;68.37
42169;BME280;27838;43.858;25.974;2024-03-02T06:17:53;100798.81;;;11.33;68.34
42169;BME280;27838;43.858;25.974;2024-03-02T06:20:20;100805.78;;;11.34;67.99
42169;BME280;27838;43.858;25.974;2024-03-02T06:22:46;100810.16;;;11.32;67.96
42169;BME280;27838;43.858;25.974;2024-03-02T06:25:13;100812.75;;;11.31;68.03
42169;BME280;27838;43.858;25.974;2024-03-02T06:27:39;100803.19;;;11.30;67.85
42169;BME280;27838;43.858;25.974;2024-03-02T06:30:06;100804.91;;;11.22;67.97
42169;BME280;27838;43.858;25.974;2024-03-02T06:32:33;100798.88;;;11.17;68.18
42169;BME280;27838;43.858;25.974;2024-03-02T06:35:00;100796.25;;;11.17;68.05
42169;BME280;27838;43.858;25.974;2024-03-02T06:37:26;100798.88;;;11.17;67.85
42169;BME280;27838;43.858;25.974;2024-03-02T06:39:53;100792.78;;;11.11;67.98
42169;BME280;27838;43.858;25.974;2024-03-02T06:42:19;100773.63;;;11.09;67.59
42169;BME280;27838;43.858;25.974;2024-03-02T06:44:46;100782.34;;;11.05;67.35
42169;BME280;27838;43.858;25.974;2024-03-02T06:47:12;100789.31;;;11.00;67.58
42169;BME280;27838;43.858;25.974;2024-03-02T06:49:42;100793.66;;;11.00;67.57
42169;BME280;27838;43.858;25.974;2024-03-02T06:52:08;100803.22;;;10.93;67.32
42169;BME280;27838;43.858;25.974;2024-03-02T06:54:36;100820.59;;;10.88;67.46
42169;BME280;27838;43.858;25.974;2024-03-02T06:57:03;100818.88;;;10.93;67.37
42169;BME280;27838;43.858;25.974;2024-03-02T06:59:29;100820.63;;;10.82;67.57
42169;BME280;27838;43.858;25.974;2024-03-02T07:01:56;100817.97;;;10.83;67.38
42169;BME280;27838;43.858;25.974;2024-03-02T07:04:23;100831.03;;;10.89;67.32
42169;BME280;27838;43.858;25.974;2024-03-02T07:06:49;100835.38;;;10.96;67.41
42169;BME280;27838;43.858;25.974;2024-03-02T07:09:16;100821.47;;;10.84;67.37
42169;BME280;27838;43.858;25.974;2024-03-02T07:11:43;100823.22;;;10.92;66.99
42169;BME280;27838;43.858;25.974;2024-03-02T07:14:09;100832.78;;;11.01;66.84
42169;BME280;27838;43.858;25.974;2024-03-02T07:16:37;100838.00;;;11.10;66.85
42169;BME280;27838;43.858;25.974;2024-03-02T07:19:05;100829.31;;;11.07;66.46
42169;BME280;27838;43.858;25.974;2024-03-02T07:21:32;100829.31;;;11.11;66.20
42169;BME280;27838;43.858;25.974;2024-03-02T07:23:59;100829.28;;;11.14;66.17
42169;BME280;27838;43.858;25.974;2024-03-02T07:26:28;100811.91;;;11.13;66.41
42169;BME280;27838;43.858;25.974;2024-03-02T07:28:56;100803.22;;;11.11;66.53
42169;BME280;27838;43.858;25.974;2024-03-02T07:31:23;100802.34;;;11.15;66.91
42169;BME280;27838;43.858;25.974;2024-03-02T07:33:49;100803.19;;;11.22;66.63
42169;BME280;27838;43.858;25.974;2024-03-02T07:36:16;100794.50;;;11.23;66.33
42169;BME280;27838;43.858;25.974;2024-03-02T07:38:44;100788.38;;;11.32;66.26
42169;BME280;27838;43.858;25.974;2024-03-02T07:41:11;100801.44;;;11.41;66.04
42169;BME280;27838;43.858;25.974;2024-03-02T07:43:38;100792.72;;;11.48;65.31
42169;BME280;27838;43.858;25.974;2024-03-02T07:46:05;100787.47;;;11.58;65.06
42169;BME280;27838;43.858;25.974;2024-03-02T07:48:31;100777.00;;;11.64;64.59
42169;BME280;27838;43.858;25.974;2024-03-02T07:50:58;100795.25;;;11.71;64.13
42169;BME280;27838;43.858;25.974;2024-03-02T07:53:24;100789.13;;;11.76;64.14
42169;BME280;27838;43.858;25.974;2024-03-02T07:55:51;100789.13;;;11.85;63.78
42169;BME280;27838;43.858;25.974;2024-03-02T07:58:17;100784.75;;;11.81;63.17
42169;BME280;27838;43.858;25.974;2024-03-02T08:00:45;100782.19;;;11.68;63.25
42169;BME280;27838;43.858;25.974;2024-03-02T08:03:11;100790.88;;;11.74;63.60
42169;BME280;27838;43.858;25.974;2024-03-02T08:05:40;100796.09;;;11.78;63.67
42169;BME280;27838;43.858;25.974;2024-03-02T08:08:06;100791.72;;;11.82;63.60
42169;BME280;27838;43.858;25.974;2024-03-02T08:10:33;100796.06;;;11.87;63.38
42169;BME280;27838;43.858;25.974;2024-03-02T08:13:00;100789.97;;;11.88;63.21
42169;BME280;27838;43.858;25.974;2024-03-02T08:15:26;100787.34;;;11.92;62.97
42169;BME280;27838;43.858;25.974;2024-03-02T08:17:53;100781.22;;;12.00;63.12
42169;BME280;27838;43.858;25.974;2024-03-02T08:20:19;100794.25;;;12.05;62.82
42169;BME280;27838;43.858;25.974;2024-03-02T08:22:46;100787.28;;;12.10;62.53
42169;BME280;27838;43.858;25.974;2024-03-02T08:25:13;100790.75;;;12.09;62.01
42169;BME280;27838;43.858;25.974;2024-03-02T08:27:41;100795.97;;;12.12;62.21
42169;BME280;27838;43.858;25.974;2024-03-02T08:30:08;100793.34;;;12.09;62.25
42169;BME280;27838;43.858;25.974;2024-03-02T08:32:35;100794.25;;;12.11;62.02
42169;BME280;27838;43.858;25.974;2024-03-02T08:35:02;100794.19;;;12.17;62.09
42169;BME280;27838;43.858;25.974;2024-03-02T08:37:29;100791.56;;;12.25;61.98
42169;BME280;27838;43.858;25.974;2024-03-02T08:39:56;100799.34;;;12.30;61.86
42169;BME280;27838;43.858;25.974;2024-03-02T08:42:22;100794.97;;;12.32;62.18
42169;BME280;27838;43.858;25.974;2024-03-02T08:44:49;100787.13;;;12.32;61.81
42169;BME280;27838;43.858;25.974;2024-03-02T08:47:16;100788.03;;;12.32;62.02
42169;BME280;27838;43.858;25.974;2024-03-02T08:49:43;100787.13;;;12.38;61.94
42169;BME280;27838;43.858;25.974;2024-03-02T08:52:09;100793.16;;;12.46;61.70
42169;BME280;27838;43.858;25.974;2024-03-02T08:54:38;100773.09;;;12.48;61.55
42169;BME280;27838;43.858;25.974;2024-03-02T08:57:05;100776.56;;;12.53;61.50
42169;BME280;27838;43.858;25.974;2024-03-02T08:59:33;100780.84;;;12.60;61.01
42169;BME280;27838;43.858;25.974;2024-03-02T09:01:59;100774.69;;;12.72;60.79
42169;BME280;27838;43.858;25.974;2024-03-02T09:04:27;100771.16;;;12.75;60.21
42169;BME280;27838;43.858;25.974;2024-03-02T09:06:54;100764.13;;;12.81;60.09
42169;BME280;27838;43.858;25.974;2024-03-02T09:09:20;100759.75;;;12.80;60.78
42169;BME280;27838;43.858;25.974;2024-03-02T09:11:47;100758.00;;;12.82;60.18
42169;BME280;27838;43.858;25.974;2024-03-02T09:14:13;100764.03;;;12.91;60.47
42169;BME280;27838;43.858;25.974;2024-03-02T09:16:40;100765.72;;;12.96;60.27
42169;BME280;27838;43.858;25.974;2024-03-02T09:19:07;100764.84;;;12.99;59.78
42169;BME280;27838;43.858;25.974;2024-03-02T09:21:34;100766.66;;;12.91;60.31
42169;BME280;27838;43.858;25.974;2024-03-02T09:24:01;100760.56;;;12.92;60.34
42169;BME280;27838;43.858;25.974;2024-03-02T09:26:29;100777.00;;;13.03;59.85
42169;BME280;27838;43.858;25.974;2024-03-02T09:28:55;100773.50;;;13.07;59.97
42169;BME280;27838;43.858;25.974;2024-03-02T09:31:22;100777.81;;;13.13;60.02
42169;BME280;27838;43.858;25.974;2024-03-02T09:33:48;100768.13;;;13.21;59.62
42169;BME280;27838;43.858;25.974;2024-03-02T09:36:19;100779.34;;;13.35;58.96
42169;BME280;27838;43.858;25.974;2024-03-02T09:38:46;100780.19;;;13.37;58.73
42169;BME280;27838;43.858;25.974;2024-03-02T09:41:12;100774.88;;;13.44;58.30
42169;BME280;27838;43.858;25.974;2024-03-02T09:43:40;100773.91;;;13.54;58.17
42169;BME280;27838;43.858;25.974;2024-03-02T09:46:08;100778.09;;;13.69;57.77
42169;BME280;27838;43.858;25.974;2024-03-02T09:48:36;100790.25;;;13.76;57.25
42169;BME280;27838;43.858;25.974;2024-03-02T09:51:04;100779.88;;;13.67;57.48
42169;BME280;27838;43.858;25.974;2024-03-02T09:53:32;100781.59;;;13.66;57.17
42169;BME280;27838;43.858;25.974;2024-03-02T09:56:00;100783.25;;;13.75;57.22
42169;BME280;27838;43.858;25.974;2024-03-02T09:58:26;100779.72;;;13.81;56.46
42169;BME280;27838;43.858;25.974;2024-03-02T10:00:53;100778.78;;;13.85;57.09
42169;BME280;27838;43.858;25.974;2024-03-02T10:03:19;100782.22;;;13.90;56.89
42169;BME280;27838;43.858;25.974;2024-03-02T10:05:46;100788.22;;;14.00;56.22
42169;BME280;27838;43.858;25.974;2024-03-02T10:08:13;100781.19;;;14.02;55.83
42169;BME280;27838;43.858;25.974;2024-03-02T10:10:40;100778.50;;;14.05;55.65
42169;BME280;27838;43.858;25.974;2024-03-02T10:13:11;100788.97;;;14.05;56.23
42169;BME280;27838;43.858;25.974;2024-03-02T10:15:38;100774.94;;;14.10;55.78
42169;BME280;27838;43.858;25.974;2024-03-02T10:18:10;100778.44;;;14.11;55.22
42169;BME280;27838;43.858;25.974;2024-03-02T10:20:41;100789.78;;;14.10;55.78
42169;BME280;27838;43.858;25.974;2024-03-02T10:23:14;100774.09;;;14.08;55.52
42169;BME280;27838;43.858;25.974;2024-03-02T10:25:43;100781.84;;;14.18;56.02
42169;BME280;27838;43.858;25.974;2024-03-02T10:28:10;100782.66;;;14.23;55.59
42169;BME280;27838;43.858;25.974;2024-03-02T10:30:36;100785.19;;;14.26;55.34
42169;BME280;27838;43.858;25.974;2024-03-02T10:33:05;100783.44;;;14.28;54.97
42169;BME280;27838;43.858;25.974;2024-03-02T10:35:32;100779.03;;;14.31;54.94
42169;BME280;27838;43.858;25.974;2024-03-02T10:38:03;100777.28;;;14.29;54.80
42169;BME280;27838;43.858;25.974;2024-03-02T10:40:31;100770.19;;;14.37;54.86
42169;BME280;27838;43.858;25.974;2024-03-02T10:42:58;100771.00;;;14.42;54.96
42169;BME280;27838;43.858;25.974;2024-03-02T10:45:25;100761.28;;;14.49;54.08
42169;BME280;27838;43.858;25.974;2024-03-02T10:47:52;100763.19;;;14.38;54.38
42169;BME280;27838;43.858;25.974;2024-03-02T10:50:19;100771.81;;;14.46;54.51
42169;BME280;27838;43.858;25.974;2024-03-02T10:52:45;100766.47;;;14.52;54.51
42169;BME280;27838;43.858;25.974;2024-03-02T10:55:12;100759.28;;;14.66;54.25
42169;BME280;27838;43.858;25.974;2024-03-02T10:57:42;100758.28;;;14.75;53.63
42169;BME280;27838;43.858;25.974;2024-03-02T11:00:12;100757.19;;;14.87;53.26
42169;BME280;27838;43.858;25.974;2024-03-02T11:02:46;100747.53;;;14.90;53.33
42169;BME280;27838;43.858;25.974;2024-03-02T11:05:19;100760.47;;;15.00;53.35
42169;BME280;27838;43.858;25.974;2024-03-02T11:07:52;100754.38;;;14.98;52.66
42169;BME280;27838;43.858;25.974;2024-03-02T11:10:19;100746.41;;;15.02;52.67
42169;BME280;27838;43.858;25.974;2024-03-02T11:13:00;100745.38;;;15.11;52.64
42169;BME280;27838;43.858;25.974;2024-03-02T11:15:30;100747.06;;;15.15;52.47
42169;BME280;27838;43.858;25.974;2024-03-02T11:17:57;100744.53;;;15.10;52.70
42169;BME280;27838;43.858;25.974;2024-03-02T11:20:24;100747.16;;;15.09;52.25
42169;BME280;27838;43.858;25.974;2024-03-02T11:22:51;100744.56;;;15.07;52.25
42169;BME280;27838;43.858;25.974;2024-03-02T11:25:27;100740.22;;;15.08;52.17
42169;BME280;27838;43.858;25.974;2024-03-02T11:33:02;100736.66;;;15.09;52.69
42169;BME280;27838;43.858;25.974;2024-03-02T11:35:45;100719.34;;;14.99;52.74
42169;BME280;27838;43.858;25.974;2024-03-02T11:38:12;100737.59;;;15.06;52.57
42169;BME280;27838;43.858;25.974;2024-03-02T11:40:39;100732.38;;;15.05;52.19
42169;BME280;27838;43.858;25.974;2024-03-02T11:43:07;100736.72;;;15.06;52.27
42169;BME280;27838;43.858;25.974;2024-03-02T11:45:35;100729.84;;;14.99;52.17
42169;BME280;27838;43.858;25.974;2024-03-02T11:48:05;100731.69;;;14.94;52.66
42169;BME280;27838;43.858;25.974;2024-03-02T11:50:41;100723.03;;;14.88;52.38
42169;BME280;27838;43.858;25.974;2024-03-02T11:53:09;100727.44;;;14.88;52.89
42169;BME280;27838;43.858;25.974;2024-03-02T11:55:37;100723.97;;;14.86;53.16
42169;BME280;27838;43.858;25.974;2024-03-02T11:58:05;100722.31;;;14.82;52.96
42169;BME280;27838;43.858;25.974;2024-03-02T12:00:32;100716.22;;;14.78;53.00
42169;BME280;27838;43.858;25.974;2024-03-02T12:03:03;100717.97;;;14.78;53.39
42169;BME280;27838;43.858;25.974;2024-03-02T12:05:31;100710.00;;;14.85;53.15
42169;BME280;27838;43.858;25.974;2024-03-02T12:07:59;100714.34;;;14.85;53.17
42169;BME280;27838;43.858;25.974;2024-03-02T12:10:26;100712.56;;;14.87;52.94
42169;BME280;27838;43.858;25.974;2024-03-02T12:13:00;100709.13;;;14.83;53.01
42169;BME280;27838;43.858;25.974;2024-03-02T12:15:31;100707.50;;;14.76;53.15
42169;BME280;27838;43.858;25.974;2024-03-02T12:17:59;100703.09;;;14.78;52.91
42169;BME280;27838;43.858;25.974;2024-03-02T12:20:30;100701.34;;;14.80;52.65
42169;BME280;27838;43.858;25.974;2024-03-02T12:23:02;100703.19;;;14.73;52.98
42169;BME280;27838;43.858;25.974;2024-03-02T12:25:29;100707.63;;;14.70;52.99
42169;BME280;27838;43.858;25.974;2024-03-02T12:27:57;100707.63;;;14.70;53.14
42169;BME280;27838;43.858;25.974;2024-03-02T12:30:27;100708.50;;;14.70;52.89
42169;BME280;27838;43.858;25.974;2024-03-02T12:32:55;100704.19;;;14.66;52.77
42169;BME280;27838;43.858;25.974;2024-03-02T12:35:24;100714.66;;;14.68;52.92
42169;BME280;27838;43.858;25.974;2024-03-02T12:37:52;100714.69;;;14.66;53.00
42169;BME280;27838;43.858;25.974;2024-03-02T12:40:20;100703.31;;;14.66;53.08
42169;BME280;27838;43.858;25.974;2024-03-02T12:42:48;100710.22;;;14.73;52.83
42169;BME280;27838;43.858;25.974;2024-03-02T12:45:16;100703.09;;;14.78;52.39
42169;BME280;27838;43.858;25.974;2024-03-02T12:47:49;100702.22;;;14.79;52.18
42169;BME280;27838;43.858;25.974;2024-03-02T12:50:15;100698.72;;;14.80;52.18
42169;BME280;27838;43.858;25.974;2024-03-02T12:52:42;100698.59;;;14.85;52.19